Awosting, New Jersey
Current Conditions -  °F | °C
As of 8:53 PM on Saturday 25 Oct 2014 (Local Time) from KFWN Reporting Station
Clear Clear  
Wind Chill: 62°   Ceiling: Unl
Heat Index: 62°   Visibility: 10mi
Dew Point: 44°   Wind: 5mph
Humidity: 52%   Direction: 220°SW
Pressure: 29.58"   Gusts: NA
Location:  41.1652°N, 74.3769°W
Report Text: KFWN 260053Z AUTO 22004KT 10SM CLR 17/07 A2958 RMK AO2 SLP017 T01670067
Loading
Personal Weather Stations






























Interactive Weather Map
Tropical Storm Tracking
New forecast layout! Learn more

10-Day Weather Forecast

Advertisements
Track Severe Weather on mobile